Winedale's Hourly Summary for Thursday, May 10, 2018
Hour Temp
(f)
RH
(%)
Solar Rad.
(MJ/m2)
Rainfall
(in)
Wind
(mph)
5/10/2018 12:00 AM 68 63 0 0 3.66
5/10/2018 1:00 AM 65 73 0 0 3.02
5/10/2018 2:00 AM 63 82 0 0 2.09
5/10/2018 3:00 AM 62 88 0 0 2.13
5/10/2018 4:00 AM 62 92 0 0 2.44
5/10/2018 5:00 AM 61 95 0 0 0.41
5/10/2018 6:00 AM 61 97 0 0 1.61
5/10/2018 7:00 AM 62 98 0.02 0 0.47
5/10/2018 8:00 AM 63 98 0.42 0 1.83
5/10/2018 9:00 AM 69 83 1.19 0 5.76
5/10/2018 10:00 AM 74 70 1.9 0 7.02
5/10/2018 11:00 AM 78 54 2.39 0 7.69
5/10/2018 12:00 PM 80 45 3.13 0 8.01
5/10/2018 1:00 PM 83 40 3.45 0 7.95
5/10/2018 2:00 PM 84 39 3.06 0 8.07
5/10/2018 3:00 PM 86 34 3.11 0 7.64
5/10/2018 4:00 PM 86 34 2.74 0 8.48
5/10/2018 5:00 PM 87 36 2.42 0 8.25
5/10/2018 6:00 PM 85 42 0.65 0 6.84
5/10/2018 7:00 PM 84 46 0.86 0 6.61
5/10/2018 8:00 PM 81 53 0.27 0 6.49
5/10/2018 9:00 PM 77 61 0.01 0 3.82
5/10/2018 10:00 PM 74 69 0 0 3.96
5/10/2018 11:00 PM 73 74 0 0 4.47
Data Summary 73 65 25.62 0.00 4.95